Time;durP1;ratioP1;P1;durP2;ratioP2;P2;SDS_P1;SDS_P2;PMS_P1;PMS_P2;Temp;Humidity;BMP_temperature;BMP_pressure;BME280_temperature;BME280_humidity;BME280_pressure;Samples;Min_cycle;Max_cycle;Signal;HPM_P1;HPM_P2
2021/03/18 00:01:22;;;;;;;14.10;5.13;;;1.50;99.90;;;;;;4959535;28;20038;-77
2021/03/18 00:03:49;;;;;;;17.25;5.35;;;1.50;99.90;;;;;;4961700;28;20037;-78
2021/03/18 00:06:16;;;;;;;6.88;4.50;;;1.50;99.90;;;;;;4959845;28;20066;-78
2021/03/18 00:08:42;;;;;;;10.23;4.80;;;1.50;99.90;;;;;;4961845;28;20174;-78
2021/03/18 00:11:11;;;;;;;14.25;5.22;;;1.50;99.90;;;;;;4964486;28;20491;-78
2021/03/18 00:13:41;;;;;;;8.25;4.95;;;1.50;99.90;;;;;;4959654;28;20047;-78
2021/03/18 00:16:07;;;;;;;18.27;5.05;;;1.50;99.90;;;;;;4961399;28;20047;-78
2021/03/18 00:18:48;;;;;;;10.70;5.15;;;1.50;99.90;;;;;;4960316;28;20050;-78
2021/03/18 00:21:15;;;;;;;14.20;5.55;;;1.50;99.90;;;;;;4963177;28;20208;-78
2021/03/18 00:23:40;;;;;;;10.15;4.30;;;1.60;99.90;;;;;;4963268;28;20160;-78
2021/03/18 00:26:06;;;;;;;9.43;4.72;;;1.60;99.90;;;;;;4965129;28;20159;-78
2021/03/18 00:28:33;;;;;;;8.57;4.63;;;1.50;99.90;;;;;;4958716;28;20081;-78
2021/03/18 00:30:59;;;;;;;8.75;4.63;;;1.60;99.90;;;;;;4961091;28;20039;-78
2021/03/18 00:33:26;;;;;;;10.90;4.95;;;1.60;99.90;;;;;;4960533;28;20070;-78
2021/03/18 00:35:52;;;;;;;13.45;5.25;;;1.60;99.90;;;;;;4954970;28;20081;-78
2021/03/18 00:38:18;;;;;;;8.40;4.85;;;1.60;99.90;;;;;;4957730;28;20042;-78
2021/03/18 00:40:49;;;;;;;14.35;4.80;;;1.60;99.90;;;;;;4961066;28;20097;-78
2021/03/18 00:43:17;;;;;;;9.13;4.85;;;1.60;99.90;;;;;;4961511;28;20045;-78
2021/03/18 00:45:45;;;;;;;11.57;5.10;;;1.60;99.90;;;;;;4957325;28;20163;-78
2021/03/18 00:48:12;;;;;;;11.68;5.07;;;1.60;99.90;;;;;;4956652;28;20038;-78
2021/03/18 00:50:48;;;;;;;20.17;4.78;;;1.70;99.90;;;;;;4958528;28;20047;-78
2021/03/18 00:53:21;;;;;;;8.07;4.38;;;1.70;99.90;;;;;;4956919;28;20043;-78
2021/03/18 00:55:46;;;;;;;14.45;4.78;;;1.70;99.90;;;;;;4958130;28;20039;-78
2021/03/18 00:58:12;;;;;;;7.90;4.22;;;1.70;99.90;;;;;;4958018;28;20046;-78
2021/03/18 01:00:47;;;;;;;12.50;5.22;;;1.70;99.90;;;;;;4956430;28;20042;-77
2021/03/18 01:03:14;;;;;;;8.50;3.63;;;1.70;99.90;;;;;;4959873;28;20039;-78
2021/03/18 01:05:51;;;;;;;13.88;4.90;;;1.70;99.90;;;;;;4950083;28;20058;-78
2021/03/18 01:08:22;;;;;;;7.13;4.20;;;1.70;99.90;;;;;;4949196;28;20037;-78
2021/03/18 01:11:00;;;;;;;15.80;4.97;;;1.70;99.90;;;;;;4949346;28;20070;-78
2021/03/18 01:13:26;;;;;;;9.55;4.65;;;1.70;99.90;;;;;;4948851;28;20094;-78
2021/03/18 01:15:55;;;;;;;12.00;4.72;;;1.70;99.90;;;;;;4952391;28;20039;-78
2021/03/18 01:18:26;;;;;;;8.57;4.47;;;1.80;99.90;;;;;;4962815;28;20046;-77
2021/03/18 01:20:52;;;;;;;12.40;4.22;;;1.80;99.90;;;;;;4960387;28;20125;-78
2021/03/18 01:23:17;;;;;;;10.88;4.90;;;1.70;99.90;;;;;;4958889;28;20718;-77
2021/03/18 01:25:43;;;;;;;10.35;3.97;;;1.70;99.90;;;;;;4957562;28;20097;-78
2021/03/18 01:28:10;;;;;;;12.95;4.93;;;1.70;99.90;;;;;;4959150;28;20112;-77
2021/03/18 01:30:38;;;;;;;11.10;4.63;;;1.70;99.90;;;;;;4960787;28;20078;-78
2021/03/18 01:33:04;;;;;;;6.72;3.75;;;1.70;99.90;;;;;;4961720;28;20134;-77
2021/03/18 01:35:30;;;;;;;9.88;4.43;;;1.70;99.90;;;;;;4964081;28;20039;-77
2021/03/18 01:37:55;;;;;;;9.18;4.72;;;1.70;99.90;;;;;;4966326;28;20031;-78
2021/03/18 01:40:24;;;;;;;7.63;4.85;;;1.70;99.90;;;;;;4966838;28;20038;-77
2021/03/18 01:42:50;;;;;;;9.10;4.10;;;1.70;99.90;;;;;;4967184;28;20070;-78
2021/03/18 01:45:17;;;;;;;8.35;4.05;;;1.70;99.90;;;;;;4966823;28;20065;-78
2021/03/18 01:47:44;;;;;;;8.35;4.35;;;1.70;99.90;;;;;;4967719;28;20045;-78
2021/03/18 01:50:12;;;;;;;7.65;3.88;;;1.70;99.90;;;;;;4964207;28;20039;-78
2021/03/18 01:52:38;;;;;;;8.82;4.00;;;1.70;99.90;;;;;;4967255;28;20161;-78
2021/03/18 01:55:10;;;;;;;10.38;4.00;;;1.70;99.90;;;;;;4964362;28;20043;-78
2021/03/18 01:57:38;;;;;;;17.67;4.18;;;1.70;99.90;;;;;;4965916;28;20039;-78
2021/03/18 02:00:07;;;;;;;9.27;4.15;;;1.70;99.90;;;;;;4963670;28;20039;-79
2021/03/18 02:02:34;;;;;;;12.65;3.80;;;1.70;99.90;;;;;;4967799;28;20034;-79
2021/03/18 02:05:00;;;;;;;11.23;4.32;;;1.70;99.90;;;;;;4966924;28;20066;-79
2021/03/18 02:07:26;;;;;;;14.20;4.40;;;1.60;99.90;;;;;;4963635;28;20791;-78
2021/03/18 02:09:51;;;;;;;14.43;4.20;;;1.70;99.90;;;;;;4965010;28;20047;-79
2021/03/18 02:12:17;;;;;;;11.73;4.00;;;1.70;99.90;;;;;;4963171;28;20273;-78
2021/03/18 02:14:43;;;;;;;9.25;4.15;;;1.60;99.90;;;;;;4964763;28;20121;-79
2021/03/18 02:17:13;;;;;;;7.30;3.80;;;1.70;99.90;;;;;;4964441;28;20034;-77
2021/03/18 02:20:09;;;;;;;11.88;3.53;;;1.60;99.90;;;;;;4965234;28;20051;-79
2021/03/18 02:23:06;;;;;;;12.02;4.55;;;1.60;99.90;;;;;;4962025;28;20107;-79
2021/03/18 02:25:41;;;;;;;6.95;3.47;;;1.70;99.90;;;;;;4967404;28;20034;-78
2021/03/18 02:28:38;;;;;;;9.35;4.10;;;1.60;99.90;;;;;;4964778;28;20031;-79
2021/03/18 02:31:29;;;;;;;13.35;4.18;;;1.60;99.90;;;;;;4964347;28;20053;-79
2021/03/18 02:34:10;;;;;;;11.55;3.55;;;1.60;99.90;;;;;;4967006;28;20712;-79
2021/03/18 02:36:52;;;;;;;8.98;4.00;;;1.60;99.90;;;;;;4959179;28;20039;-78
2021/03/18 02:39:26;;;;;;;5.57;3.15;;;1.60;99.90;;;;;;4964938;28;20599;-78
2021/03/18 02:41:56;;;;;;;17.30;5.13;;;1.60;99.90;;;;;;4966723;28;20511;-78
2021/03/18 02:44:27;;;;;;;13.25;3.92;;;1.60;99.90;;;;;;4963838;28;20063;-79
2021/03/18 02:47:04;;;;;;;13.52;3.47;;;1.60;99.90;;;;;;4963095;28;20047;-78
2021/03/18 02:49:33;;;;;;;10.20;3.90;;;1.60;99.90;;;;;;4961794;28;20122;-79
2021/03/18 02:52:00;;;;;;;11.50;3.92;;;1.60;99.90;;;;;;4960102;28;20042;-79
2021/03/18 02:54:27;;;;;;;13.27;3.78;;;1.60;99.90;;;;;;4960525;28;20036;-78
2021/03/18 02:56:57;;;;;;;9.60;3.78;;;1.60;99.90;;;;;;4960715;28;20039;-77
2021/03/18 02:59:28;;;;;;;13.50;4.30;;;1.60;99.90;;;;;;4960046;28;20648;-77
2021/03/18 03:01:55;;;;;;;16.83;4.60;;;1.60;99.90;;;;;;4959158;28;20042;-77
2021/03/18 03:04:23;;;;;;;11.35;3.72;;;1.60;99.90;;;;;;4960325;28;20122;-78
2021/03/18 03:06:50;;;;;;;15.38;4.22;;;1.60;99.90;;;;;;4960157;28;20038;-78
2021/03/18 03:09:16;;;;;;;9.30;4.00;;;1.60;99.90;;;;;;4960196;28;20035;-78
2021/03/18 03:11:42;;;;;;;5.38;3.38;;;1.70;99.90;;;;;;4961610;28;20543;-78
2021/03/18 03:14:09;;;;;;;7.07;3.88;;;1.70;99.90;;;;;;4956808;28;20423;-77
2021/03/18 03:16:36;;;;;;;13.80;3.88;;;1.70;99.90;;;;;;4956762;28;20027;-79
2021/03/18 03:19:05;;;;;;;7.10;4.15;;;1.70;99.90;;;;;;4958451;28;20035;-78
2021/03/18 03:21:31;;;;;;;11.15;3.58;;;1.80;99.90;;;;;;4958293;28;20508;-78
2021/03/18 03:23:59;;;;;;;8.95;4.35;;;1.80;99.90;;;;;;4959421;28;20047;-78
2021/03/18 03:26:25;;;;;;;11.57;4.22;;;1.80;99.90;;;;;;4953808;28;20039;-77
2021/03/18 03:28:52;;;;;;;10.48;3.75;;;1.70;99.90;;;;;;4969051;28;20034;-79
2021/03/18 03:31:18;;;;;;;9.05;3.05;;;1.70;99.90;;;;;;4960258;28;20034;-79
2021/03/18 03:33:44;;;;;;;8.50;3.40;;;1.80;99.90;;;;;;4954676;28;20396;-78
2021/03/18 03:36:10;;;;;;;6.60;3.00;;;1.80;99.90;;;;;;4968121;28;20046;-78
2021/03/18 03:38:36;;;;;;;7.80;4.00;;;1.80;99.90;;;;;;4953248;28;20493;-78
2021/03/18 03:41:03;;;;;;;15.85;3.83;;;1.80;99.90;;;;;;4953331;28;20110;-78
2021/03/18 03:43:29;;;;;;;14.35;3.45;;;1.70;99.90;;;;;;4954277;28;20047;-78
2021/03/18 03:45:54;;;;;;;10.43;3.70;;;1.70;99.90;;;;;;4953826;28;20093;-78
2021/03/18 03:48:22;;;;;;;10.65;3.47;;;1.80;99.90;;;;;;4954315;28;20054;-78
2021/03/18 03:50:48;;;;;;;19.80;3.85;;;1.80;99.90;;;;;;4953323;28;20070;-77
2021/03/18 03:53:25;;;;;;;9.63;3.90;;;1.80;99.90;;;;;;4962071;28;20070;-78
2021/03/18 03:56:28;;;;;;;16.73;3.70;;;1.80;99.90;;;;;;4950965;28;20177;-79
2021/03/18 03:59:17;;;;;;;11.55;3.85;;;1.80;99.90;;;;;;4951123;28;20035;-78
2021/03/18 04:01:53;;;;;;;11.45;3.47;;;1.90;99.90;;;;;;4951775;28;20042;-79
2021/03/18 04:04:24;;;;;;;9.88;3.53;;;1.80;99.90;;;;;;4952589;28;20039;-78
2021/03/18 04:06:54;;;;;;;11.18;3.65;;;1.80;99.90;;;;;;4959186;28;20038;-78
2021/03/18 04:09:21;;;;;;;10.90;3.50;;;1.80;99.90;;;;;;4952811;28;20042;-78
2021/03/18 04:11:49;;;;;;;8.57;3.60;;;1.80;99.90;;;;;;4954514;28;20050;-79
2021/03/18 04:14:15;;;;;;;9.23;3.10;;;1.80;99.90;;;;;;4952406;28;20039;-78
2021/03/18 04:16:43;;;;;;;7.80;3.55;;;1.80;99.90;;;;;;4959100;28;20982;-79
2021/03/18 04:19:14;;;;;;;7.85;3.85;;;1.80;99.90;;;;;;4952941;28;20805;-77
2021/03/18 04:21:43;;;;;;;6.07;2.85;;;1.80;99.90;;;;;;4952031;28;20620;-78
2021/03/18 04:24:10;;;;;;;7.45;3.08;;;1.80;99.90;;;;;;4950313;28;20150;-78
2021/03/18 04:26:39;;;;;;;12.50;3.65;;;1.80;99.90;;;;;;4964292;28;20058;-79
2021/03/18 04:29:06;;;;;;;7.03;3.30;;;1.80;99.90;;;;;;4951847;28;20440;-79
2021/03/18 04:31:36;;;;;;;7.40;3.40;;;1.80;99.90;;;;;;4948653;28;20112;-79
2021/03/18 04:34:02;;;;;;;13.57;3.50;;;1.80;99.90;;;;;;4950630;28;20039;-78
2021/03/18 04:36:29;;;;;;;9.18;3.55;;;1.80;99.90;;;;;;4948965;28;20046;-78
2021/03/18 04:38:57;;;;;;;14.20;3.45;;;1.80;99.90;;;;;;4955938;28;20122;-78
2021/03/18 04:41:23;;;;;;;8.30;3.90;;;1.80;99.90;;;;;;4951671;28;20567;-77
2021/03/18 04:43:50;;;;;;;7.47;3.40;;;1.80;99.90;;;;;;4960453;28;20066;-77
2021/03/18 04:46:16;;;;;;;10.05;3.58;;;1.80;99.90;;;;;;4958436;28;20030;-79
2021/03/18 04:48:43;;;;;;;7.72;3.83;;;1.80;99.90;;;;;;4962680;28;20085;-78
2021/03/18 04:51:10;;;;;;;8.40;3.55;;;1.80;99.90;;;;;;4959138;28;20027;-78
2021/03/18 04:53:36;;;;;;;10.18;4.25;;;1.80;99.90;;;;;;4959329;28;20054;-78
2021/03/18 04:56:07;;;;;;;9.80;3.58;;;1.80;99.90;;;;;;4956984;28;20034;-78
2021/03/18 04:58:34;;;;;;;9.95;4.57;;;1.80;99.90;;;;;;4957844;28;20043;-78
2021/03/18 05:01:01;;;;;;;10.85;4.40;;;1.80;99.90;;;;;;4956581;28;20047;-78
2021/03/18 05:03:27;;;;;;;9.80;3.70;;;1.80;99.90;;;;;;4956666;28;20047;-79
2021/03/18 05:05:57;;;;;;;15.52;4.10;;;1.80;99.90;;;;;;4945921;28;20043;-78
2021/03/18 05:08:23;;;;;;;10.25;3.53;;;1.70;99.90;;;;;;4956381;28;21563;-78
2021/03/18 05:10:50;;;;;;;12.55;4.05;;;1.70;99.90;;;;;;4960567;28;20042;-78
2021/03/18 05:13:16;;;;;;;12.05;4.18;;;1.70;99.90;;;;;;4956175;28;20070;-78
2021/03/18 05:15:42;;;;;;;8.52;3.88;;;1.70;99.90;;;;;;4953711;28;20054;-78
2021/03/18 05:18:10;;;;;;;8.00;3.90;;;1.70;99.90;;;;;;4954995;28;20106;-78
2021/03/18 05:20:36;;;;;;;10.05;4.05;;;1.70;99.90;;;;;;4955645;28;20535;-78
2021/03/18 05:23:02;;;;;;;10.43;4.03;;;1.70;99.90;;;;;;4956785;28;20154;-78
2021/03/18 05:25:30;;;;;;;15.13;3.40;;;1.70;99.90;;;;;;4955847;28;20042;-78
2021/03/18 05:27:56;;;;;;;12.20;3.92;;;1.60;99.90;;;;;;4955631;28;20066;-77
2021/03/18 05:30:22;;;;;;;9.85;3.80;;;1.60;99.90;;;;;;4957789;28;20178;-78
2021/03/18 05:32:48;;;;;;;12.10;3.63;;;1.60;99.90;;;;;;4958656;28;20097;-80
2021/03/18 05:35:14;;;;;;;9.43;4.30;;;1.60;99.90;;;;;;4958064;28;20043;-79
2021/03/18 05:37:40;;;;;;;8.85;3.67;;;1.60;99.90;;;;;;4958552;28;20038;-79
2021/03/18 05:40:10;;;;;;;13.98;4.45;;;1.60;99.90;;;;;;4956396;28;20062;-79
2021/03/18 05:42:36;;;;;;;8.93;3.75;;;1.60;99.90;;;;;;4950248;28;20420;-79
2021/03/18 05:45:08;;;;;;;9.18;4.07;;;1.60;99.90;;;;;;4948683;28;20706;-80
2021/03/18 05:47:34;;;;;;;11.32;4.10;;;1.60;99.90;;;;;;4950767;28;20051;-80
2021/03/18 05:50:01;;;;;;;8.88;3.75;;;1.70;99.90;;;;;;4968312;28;20503;-80
2021/03/18 05:52:27;;;;;;;13.88;4.38;;;1.70;99.90;;;;;;4957581;28;20043;-80
2021/03/18 05:54:56;;;;;;;14.38;4.90;;;1.70;99.90;;;;;;4947022;28;20039;-80
2021/03/18 05:57:22;;;;;;;10.23;4.45;;;1.70;99.90;;;;;;4954571;28;20112;-79
2021/03/18 05:59:49;;;;;;;13.05;3.90;;;1.70;99.90;;;;;;4953018;28;20046;-79
2021/03/18 06:02:15;;;;;;;13.27;4.07;;;1.80;99.90;;;;;;4949251;28;20662;-79
2021/03/18 06:04:41;;;;;;;12.27;4.15;;;1.80;99.90;;;;;;4954132;28;20050;-79
2021/03/18 06:07:08;;;;;;;8.93;3.97;;;1.80;99.90;;;;;;4951657;28;20122;-80
2021/03/18 06:09:34;;;;;;;13.50;4.38;;;1.80;99.90;;;;;;4952941;28;20053;-79
2021/03/18 06:12:00;;;;;;;7.30;4.15;;;1.90;99.90;;;;;;4951343;28;20117;-79
2021/03/18 06:14:26;;;;;;;14.80;4.63;;;1.90;99.90;;;;;;4952785;28;20657;-80
2021/03/18 06:16:56;;;;;;;13.18;5.13;;;1.90;99.90;;;;;;4953146;28;20583;-79
2021/03/18 06:19:22;;;;;;;11.35;4.55;;;2.00;99.90;;;;;;4953129;28;20036;-77
2021/03/18 06:21:51;;;;;;;11.70;4.13;;;2.00;99.90;;;;;;4955344;28;20031;-79
2021/03/18 06:24:21;;;;;;;12.57;4.28;;;2.10;99.90;;;;;;4952983;28;20043;-78
2021/03/18 06:26:47;;;;;;;11.45;4.40;;;2.20;99.90;;;;;;4953425;28;20035;-79
2021/03/18 06:29:38;;;;;;;12.95;4.65;;;2.20;99.90;;;;;;4953213;28;20039;-79
2021/03/18 06:32:12;;;;;;;12.77;4.70;;;2.20;99.90;;;;;;4949414;28;20089;-79
2021/03/18 06:34:38;;;;;;;13.13;4.05;;;2.20;99.90;;;;;;4948310;28;20027;-80
2021/03/18 06:37:24;;;;;;;11.43;3.63;;;2.20;99.90;;;;;;4945899;28;20523;-80
2021/03/18 06:39:50;;;;;;;10.68;4.20;;;2.30;99.90;;;;;;4949995;28;20070;-80
2021/03/18 06:42:16;;;;;;;13.25;4.47;;;2.50;99.90;;;;;;4946733;28;20051;-80
2021/03/18 06:44:41;;;;;;;10.13;3.72;;;2.60;99.90;;;;;;4947944;28;20057;-79
2021/03/18 06:47:10;;;;;;;13.57;4.03;;;2.80;99.90;;;;;;4951245;28;20046;-80
2021/03/18 06:49:35;;;;;;;13.27;4.50;;;2.90;99.90;;;;;;4961391;28;20053;-79
2021/03/18 06:52:12;;;;;;;11.73;3.78;;;3.00;99.90;;;;;;4952883;28;20039;-80
2021/03/18 06:54:42;;;;;;;6.57;3.70;;;2.90;99.90;;;;;;4954301;28;20386;-79
2021/03/18 06:57:08;;;;;;;15.65;4.65;;;2.90;99.90;;;;;;4953641;28;20493;-79
2021/03/18 06:59:39;;;;;;;16.55;4.35;;;2.90;99.90;;;;;;4954454;28;20446;-79
2021/03/18 07:02:09;;;;;;;13.43;4.10;;;3.00;99.90;;;;;;4937801;28;20131;-79
2021/03/18 07:04:41;;;;;;;13.45;3.90;;;3.30;99.90;;;;;;4952823;28;20403;-79
2021/03/18 07:07:09;;;;;;;9.25;3.85;;;3.60;99.90;;;;;;4950672;28;20043;-79
2021/03/18 07:09:35;;;;;;;13.20;3.88;;;3.80;99.90;;;;;;4952945;28;20074;-78
2021/03/18 07:12:09;;;;;;;19.45;3.85;;;4.00;99.90;;;;;;4954062;28;20210;-79
2021/03/18 07:14:36;;;;;;;10.20;3.47;;;4.20;99.90;;;;;;4964628;28;20619;-79
2021/03/18 07:17:02;;;;;;;17.45;3.72;;;4.20;99.90;;;;;;4950115;28;20631;-80
2021/03/18 07:19:29;;;;;;;12.50;3.78;;;4.80;99.90;;;;;;4949461;28;20121;-81
2021/03/18 07:21:56;;;;;;;12.85;3.05;;;4.90;98.80;;;;;;4954345;28;20047;-79
2021/03/18 07:24:22;;;;;;;10.30;2.90;;;5.10;98.40;;;;;;4953225;28;20053;-80
2021/03/18 07:26:49;;;;;;;7.25;3.00;;;4.90;96.70;;;;;;4939303;28;20678;-80
2021/03/18 07:29:17;;;;;;;10.93;3.47;;;4.80;96.70;;;;;;4946988;28;20086;-80
2021/03/18 07:31:44;;;;;;;14.30;4.53;;;4.60;96.20;;;;;;4960196;28;20054;-81
2021/03/18 07:34:09;;;;;;;9.95;4.18;;;4.70;97.90;;;;;;4961073;28;20469;-80
2021/03/18 07:36:36;;;;;;;17.73;4.78;;;4.70;95.20;;;;;;4957627;28;20257;-81
2021/03/18 07:39:04;;;;;;;13.55;4.47;;;4.90;96.20;;;;;;4956784;28;20044;-81
2021/03/18 07:41:32;;;;;;;15.48;4.63;;;4.60;94.70;;;;;;4956128;28;20067;-81
2021/03/18 07:43:58;;;;;;;14.80;4.88;;;4.70;94.80;;;;;;4961236;28;20605;-81
2021/03/18 07:46:25;;;;;;;10.95;4.43;;;4.70;95.00;;;;;;4955172;28;20364;-81
2021/03/18 07:49:01;;;;;;;10.88;4.30;;;4.70;93.90;;;;;;4970538;28;20440;-82
2021/03/18 07:51:30;;;;;;;11.05;4.57;;;5.00;93.80;;;;;;4950555;28;20043;-83
2021/03/18 07:53:58;;;;;;;14.63;4.53;;;5.60;92.10;;;;;;4968223;28;20058;-82
2021/03/18 07:56:24;;;;;;;12.13;4.63;;;5.60;87.60;;;;;;4951302;28;20434;-82
2021/03/18 07:58:52;;;;;;;17.67;4.90;;;5.30;85.10;;;;;;4951576;28;20039;-81
2021/03/18 08:01:29;;;;;;;8.85;4.88;;;5.50;85.90;;;;;;4946340;28;20039;-81
2021/03/18 08:03:55;;;;;;;12.15;5.05;;;5.50;85.80;;;;;;4950663;28;20043;-80
2021/03/18 08:06:39;;;;;;;15.80;5.00;;;4.90;86.60;;;;;;4950485;28;20035;-81
2021/03/18 08:09:37;;;;;;;23.58;6.30;;;4.90;87.70;;;;;;4956431;28;20035;-81
2021/03/18 08:12:04;;;;;;;12.57;4.85;;;4.90;86.90;;;;;;4957312;28;20603;-81
2021/03/18 08:14:30;;;;;;;10.02;4.88;;;4.80;87.20;;;;;;4959179;28;20039;-82
2021/03/18 08:16:56;;;;;;;10.88;4.97;;;4.80;87.80;;;;;;4955336;28;20038;-82
2021/03/18 08:19:22;;;;;;;16.52;5.13;;;5.40;86.70;;;;;;4954048;28;20046;-82
2021/03/18 08:21:49;;;;;;;16.40;4.82;;;5.80;85.50;;;;;;4950861;28;20039;-82
2021/03/18 08:24:23;;;;;;;12.45;5.50;;;5.80;83.80;;;;;;4953172;28;20042;-81
2021/03/18 08:27:06;;;;;;;14.15;5.00;;;5.60;81.50;;;;;;4950964;28;20050;-82
2021/03/18 08:29:41;;;;;;;17.83;5.00;;;6.20;82.40;;;;;;4950945;28;20074;-80
2021/03/18 08:32:10;;;;;;;12.77;4.97;;;7.30;75.70;;;;;;4950060;28;20045;-81
2021/03/18 08:34:48;;;;;;;8.23;4.75;;;6.60;70.20;;;;;;4940612;28;20173;-82
2021/03/18 08:37:29;;;;;;;8.25;4.50;;;8.10;68.60;;;;;;4954051;28;20039;-80
2021/03/18 08:39:55;;;;;;;13.80;5.32;;;8.70;63.00;;;;;;4947224;28;20066;-82
2021/03/18 08:42:30;;;;;;;20.05;4.93;;;8.00;62.20;;;;;;4945865;28;20121;-81
2021/03/18 08:44:58;;;;;;;14.95;4.97;;;7.70;67.10;;;;;;4939859;28;20050;-81
2021/03/18 08:47:44;;;;;;;15.25;5.15;;;7.50;68.10;;;;;;4945753;28;20039;-83
2021/03/18 08:50:26;;;;;;;10.13;5.28;;;7.30;68.70;;;;;;4947809;28;20031;-80
2021/03/18 08:52:53;;;;;;;13.90;5.00;;;7.20;67.20;;;;;;4948609;28;20057;-82
2021/03/18 08:55:44;;;;;;;14.55;5.28;;;7.30;67.00;;;;;;4948691;28;20054;-82
2021/03/18 08:58:11;;;;;;;12.60;5.55;;;8.00;65.30;;;;;;4948853;28;20074;-81
2021/03/18 09:00:38;;;;;;;12.23;5.03;;;7.40;65.90;;;;;;4946694;28;20053;-82
2021/03/18 09:03:05;;;;;;;9.85;5.63;;;7.20;66.40;;;;;;4945995;28;20539;-81
2021/03/18 09:05:32;;;;;;;12.60;5.07;;;6.80;66.40;;;;;;4946632;28;20094;-82
2021/03/18 09:08:04;;;;;;;14.80;5.15;;;6.40;70.30;;;;;;4950412;28;20504;-81
2021/03/18 09:10:35;;;;;;;11.38;5.68;;;5.90;70.90;;;;;;4949656;28;20047;-81
2021/03/18 09:13:04;;;;;;;17.15;6.15;;;5.60;69.10;;;;;;4949528;28;20047;-82
2021/03/18 09:15:38;;;;;;;16.27;5.90;;;5.80;75.00;;;;;;4942253;28;20049;-82
2021/03/18 09:18:12;;;;;;;10.25;5.25;;;6.00;75.10;;;;;;4951044;28;20049;-82
2021/03/18 09:20:41;;;;;;;12.95;5.82;;;6.00;72.30;;;;;;4960968;28;20538;-81
2021/03/18 09:23:19;;;;;;;17.77;6.55;;;7.10;67.60;;;;;;4951465;28;20043;-82
2021/03/18 09:25:47;;;;;;;11.63;5.40;;;6.50;68.20;;;;;;4952631;28;20082;-82
2021/03/18 09:28:13;;;;;;;12.65;5.32;;;6.20;69.40;;;;;;4947407;28;20039;-81
2021/03/18 09:30:45;;;;;;;12.52;5.75;;;6.10;70.10;;;;;;4948182;28;20039;-82
2021/03/18 09:33:26;;;;;;;20.13;5.75;;;6.20;70.60;;;;;;4949606;28;20055;-82
2021/03/18 09:35:54;;;;;;;13.50;5.00;;;6.10;74.60;;;;;;4954326;28;20042;-83
2021/03/18 09:38:24;;;;;;;11.68;4.95;;;5.80;76.70;;;;;;4929332;28;20050;-82
2021/03/18 09:40:50;;;;;;;14.85;5.32;;;5.80;75.00;;;;;;4948807;28;20563;-82
2021/03/18 09:43:18;;;;;;;9.13;4.80;;;5.70;78.30;;;;;;4940424;28;20045;-82
2021/03/18 09:45:53;;;;;;;16.27;4.78;;;5.60;75.90;;;;;;4946596;28;20046;-82
2021/03/18 09:48:39;;;;;;;11.48;5.35;;;5.50;75.20;;;;;;4961328;28;20046;-80
2021/03/18 09:51:09;;;;;;;11.02;4.55;;;5.40;74.80;;;;;;4951290;28;20039;-81
2021/03/18 09:53:35;;;;;;;14.90;5.43;;;5.60;75.90;;;;;;4955023;28;20035;-82
2021/03/18 09:56:15;;;;;;;12.52;5.30;;;5.80;76.00;;;;;;4952419;28;20082;-81
2021/03/18 09:58:42;;;;;;;10.43;4.43;;;5.90;73.60;;;;;;4964633;28;20622;-81
2021/03/18 10:01:13;;;;;;;8.60;4.70;;;5.80;71.90;;;;;;4955497;28;20042;-81
2021/03/18 10:03:54;;;;;;;16.60;4.72;;;6.20;70.80;;;;;;4951404;28;20478;-81
2021/03/18 10:06:24;;;;;;;12.40;4.93;;;6.70;68.30;;;;;;4968566;28;20468;-80
2021/03/18 10:08:50;;;;;;;11.68;4.32;;;7.60;66.50;;;;;;4965787;28;20065;-80
2021/03/18 10:11:15;;;;;;;15.23;4.40;;;8.50;60.70;;;;;;4956442;28;20054;-81
2021/03/18 10:13:42;;;;;;;9.35;4.32;;;7.90;58.70;;;;;;4956780;28;20043;-81
2021/03/18 10:16:09;;;;;;;7.43;4.22;;;7.10;62.80;;;;;;4953174;28;20039;-81
2021/03/18 10:18:37;;;;;;;7.97;3.78;;;6.70;64.20;;;;;;4952935;28;20054;-80
2021/03/18 10:21:04;;;;;;;11.75;4.32;;;6.50;63.30;;;;;;4954422;28;20039;-81
2021/03/18 10:23:30;;;;;;;9.10;4.47;;;6.30;67.60;;;;;;4963090;28;20093;-81
2021/03/18 10:25:56;;;;;;;11.88;4.05;;;6.50;66.30;;;;;;4949828;28;20078;-82
2021/03/18 10:28:23;;;;;;;10.15;4.07;;;6.50;66.10;;;;;;4950856;28;20113;-81
2021/03/18 10:30:50;;;;;;;9.20;4.60;;;5.90;66.40;;;;;;4953250;28;20058;-81
2021/03/18 10:33:27;;;;;;;10.65;4.38;;;6.00;66.90;;;;;;4952695;28;20581;-81
2021/03/18 10:35:52;;;;;;;10.07;4.50;;;6.10;72.80;;;;;;4950976;28;20043;-82
2021/03/18 10:38:29;;;;;;;8.30;4.38;;;5.90;67.90;;;;;;4948157;28;20577;-81
2021/03/18 10:40:56;;;;;;;19.50;4.03;;;5.90;69.20;;;;;;4956095;28;20050;-80
2021/03/18 10:43:30;;;;;;;8.80;3.40;;;5.90;69.60;;;;;;4951805;28;20106;-81
2021/03/18 10:46:02;;;;;;;7.82;4.05;;;5.50;66.80;;;;;;4956468;28;20039;-81
2021/03/18 10:48:31;;;;;;;9.35;4.18;;;5.50;66.90;;;;;;4955078;28;20031;-81
2021/03/18 10:51:08;;;;;;;15.25;4.45;;;5.50;67.60;;;;;;4955564;28;20045;-81
2021/03/18 10:53:39;;;;;;;7.97;4.00;;;5.80;69.30;;;;;;4949958;28;20051;-82
2021/03/18 10:56:09;;;;;;;9.75;4.22;;;5.90;67.90;;;;;;4955149;28;20049;-82
2021/03/18 10:58:35;;;;;;;13.95;4.13;;;6.10;68.70;;;;;;4950969;28;20126;-81
2021/03/18 11:01:04;;;;;;;9.73;4.40;;;6.10;66.00;;;;;;4952797;28;20146;-80
2021/03/18 11:03:38;;;;;;;12.20;4.22;;;6.10;64.80;;;;;;4958798;28;20050;-82
2021/03/18 11:06:14;;;;;;;8.63;4.93;;;6.20;66.60;;;;;;4951395;28;20533;-80
2021/03/18 11:08:43;;;;;;;10.93;4.88;;;6.30;65.10;;;;;;4952742;28;20038;-81
2021/03/18 11:11:17;;;;;;;8.85;3.72;;;6.50;63.90;;;;;;4950878;28;20037;-82
2021/03/18 11:13:43;;;;;;;9.20;4.53;;;6.70;64.70;;;;;;4958952;28;20620;-82
2021/03/18 11:16:12;;;;;;;7.57;4.38;;;6.90;63.80;;;;;;4955316;28;20062;-82
2021/03/18 11:18:39;;;;;;;24.60;4.65;;;7.30;64.20;;;;;;4952201;28;20047;-82
2021/03/18 11:21:20;;;;;;;9.20;4.53;;;7.40;59.70;;;;;;4951327;28;20117;-81
2021/03/18 11:23:48;;;;;;;11.13;4.32;;;7.60;59.40;;;;;;4951237;28;20050;-83
2021/03/18 11:26:17;;;;;;;16.10;3.95;;;7.80;57.80;;;;;;4953382;28;20042;-82
2021/03/18 11:28:57;;;;;;;13.32;3.30;;;8.10;55.70;;;;;;4954188;28;20031;-82
2021/03/18 11:31:27;;;;;;;8.27;3.75;;;8.30;48.70;;;;;;4955023;28;20043;-82
2021/03/18 11:33:53;;;;;;;8.82;3.38;;;8.20;44.80;;;;;;4954168;28;20938;-82
2021/03/18 11:36:19;;;;;;;7.03;3.22;;;8.10;45.10;;;;;;4957267;28;20035;-81
2021/03/18 11:38:45;;;;;;;12.20;3.65;;;8.30;45.80;;;;;;4954568;28;20439;-82
2021/03/18 11:41:11;;;;;;;4.95;3.53;;;8.40;45.50;;;;;;4952306;28;20435;-82
2021/03/18 11:43:37;;;;;;;6.93;3.38;;;8.40;46.00;;;;;;4960351;28;20050;-82
2021/03/18 11:46:04;;;;;;;17.70;4.47;;;8.40;43.40;;;;;;4952514;28;20039;-81
2021/03/18 11:48:30;;;;;;;12.73;3.60;;;8.50;45.90;;;;;;4951725;28;20035;-82
2021/03/18 11:50:56;;;;;;;14.25;4.13;;;8.30;43.70;;;;;;4952698;28;20070;-82
2021/03/18 11:53:22;;;;;;;6.35;3.63;;;7.70;43.40;;;;;;4951242;28;20049;-81
2021/03/18 11:55:52;;;;;;;6.43;3.55;;;7.00;48.10;;;;;;4951726;28;20051;-82
2021/03/18 11:58:19;;;;;;;7.60;4.00;;;6.70;52.90;;;;;;4948589;28;20400;-81
2021/03/18 12:00:47;;;;;;;8.75;4.15;;;6.80;56.70;;;;;;4942597;28;20049;-81
2021/03/18 12:03:14;;;;;;;11.07;4.32;;;6.60;62.30;;;;;;4948023;28;20046;-80
2021/03/18 12:05:41;;;;;;;10.15;4.40;;;6.60;69.30;;;;;;4951588;28;20042;-80
2021/03/18 12:08:12;;;;;;;9.68;4.30;;;6.50;65.20;;;;;;4947600;28;20042;-82
2021/03/18 12:10:40;;;;;;;9.18;4.40;;;6.40;69.20;;;;;;4945245;28;20050;-81
2021/03/18 12:13:10;;;;;;;9.52;4.60;;;6.50;65.70;;;;;;4949315;28;20527;-81
2021/03/18 12:15:36;;;;;;;9.65;3.92;;;6.30;63.90;;;;;;4947090;28;20047;-81
2021/03/18 12:18:04;;;;;;;6.93;3.22;;;6.50;64.70;;;;;;4946143;28;20047;-81
2021/03/18 12:20:33;;;;;;;11.02;4.07;;;6.60;62.00;;;;;;4959163;28;20047;-81
2021/03/18 12:22:58;;;;;;;10.20;3.50;;;6.80;61.80;;;;;;4958104;28;20095;-81
2021/03/18 12:25:25;;;;;;;12.38;3.60;;;6.90;56.80;;;;;;4952810;28;20046;-81
2021/03/18 12:27:53;;;;;;;11.50;3.45;;;7.30;51.70;;;;;;4960088;28;20048;-81
2021/03/18 12:30:22;;;;;;;8.05;3.95;;;8.40;57.90;;;;;;4953871;28;20039;-81
2021/03/18 12:32:53;;;;;;;11.85;3.70;;;7.60;59.30;;;;;;4965973;28;20398;-81
2021/03/18 12:35:22;;;;;;;10.30;4.30;;;7.30;63.80;;;;;;4945165;28;20570;-81
2021/03/18 12:37:51;;;;;;;12.77;4.45;;;7.10;70.30;;;;;;4951940;28;20250;-81
2021/03/18 12:40:19;;;;;;;11.15;4.78;;;6.60;68.00;;;;;;4952369;28;20043;-80
2021/03/18 12:42:46;;;;;;;12.70;4.50;;;6.50;70.10;;;;;;4952454;28;21018;-81
2021/03/18 12:45:16;;;;;;;9.65;3.85;;;6.70;68.80;;;;;;4952128;28;20649;-81
2021/03/18 12:47:43;;;;;;;8.20;4.10;;;7.10;68.50;;;;;;4923704;28;20855;-81
2021/03/18 12:50:15;;;;;;;11.45;3.42;;;7.00;67.80;;;;;;4944275;28;20043;-79
2021/03/18 12:52:41;;;;;;;10.82;4.38;;;7.00;67.40;;;;;;4948307;28;20708;-79
2021/03/18 12:55:08;;;;;;;6.50;3.28;;;7.50;67.50;;;;;;4954932;28;20129;-79
2021/03/18 12:57:34;;;;;;;9.82;4.10;;;7.50;62.70;;;;;;4954175;28;20055;-79
2021/03/18 12:59:59;;;;;;;7.15;3.70;;;7.60;64.40;;;;;;4950224;28;20044;-79
2021/03/18 13:02:25;;;;;;;6.32;3.70;;;7.70;66.90;;;;;;4952023;28;20087;-79